Airport View

Enter AWOS ICAO identifier for current METAR.

ex. KFNL

KKY8 251645Z AUTO 03006KT 10SM OVC013 10/10 A3006 RMK A01

25 Oct 2020 16:55

Frequency: 119.775

Phone: 270-295-3565

Other Area AWOS: KHNB - KOWB - KEVV - KFRH

TAF AMD KOWB 251507Z 2515/2612 05007KT P6SM OVC012